Time;durP1;ratioP1;P1;durP2;ratioP2;P2;SDS_P1;SDS_P2;PMS_P1;PMS_P2;Temp;Humidity;BMP_temperature;BMP_pressure;BME280_temperature;BME280_humidity;BME280_pressure;Samples;Min_cycle;Max_cycle;Signal;HPM_P1;HPM_P2
2021/11/11 00:00:15;;;;;;;24.60;15.33;;;;;;;3.96;97.47;97314.75;5095808;28;20429;-67
2021/11/11 00:02:42;;;;;;;26.08;15.98;;;;;;;3.99;96.51;97322.22;5094963;28;20858;-67
2021/11/11 00:05:09;;;;;;;22.27;14.75;;;;;;;3.80;98.36;97322.63;5093531;28;20467;-67
2021/11/11 00:07:35;;;;;;;22.05;14.75;;;;;;;3.74;98.82;97324.13;5110932;28;20392;-67
2021/11/11 00:10:01;;;;;;;19.98;14.48;;;;;;;3.78;97.34;97319.44;5108542;28;20390;-67
2021/11/11 00:12:31;;;;;;;23.77;15.40;;;;;;;3.81;97.20;97323.44;5111103;28;20395;-67
2021/11/11 00:14:57;;;;;;;23.83;15.40;;;;;;;3.87;97.08;97317.59;5094970;28;20396;-67
2021/11/11 00:17:23;;;;;;;25.00;16.40;;;;;;;3.88;97.60;97317.41;5097164;28;20404;-72
2021/11/11 00:19:48;;;;;;;26.93;16.47;;;;;;;3.87;98.20;97310.59;5094464;28;20760;-67
2021/11/11 00:22:13;;;;;;;24.23;16.57;;;;;;;4.14;97.08;97311.88;5093310;28;20398;-67
2021/11/11 00:24:39;;;;;;;23.55;16.58;;;;;;;3.95;96.88;97305.38;5093225;28;20396;-67
2021/11/11 00:27:04;;;;;;;24.10;15.73;;;;;;;3.82;97.35;97304.31;5093245;28;20407;-67
2021/11/11 00:29:30;;;;;;;20.95;14.68;;;;;;;3.67;98.17;97286.94;5109955;28;20381;-68
2021/11/11 00:31:55;;;;;;;22.23;15.37;;;;;;;3.67;99.20;97286.94;5112832;28;20389;-67
2021/11/11 00:34:20;;;;;;;22.37;16.07;;;;;;;3.82;98.33;97292.16;5112769;28;20415;-67
2021/11/11 00:36:46;;;;;;;25.03;16.20;;;;;;;3.87;98.08;97289.06;5111938;28;20400;-67
2021/11/11 00:39:12;;;;;;;23.53;15.43;;;;;;;3.91;98.67;97291.13;5098385;28;20477;-67
2021/11/11 00:41:37;;;;;;;25.30;16.37;;;;;;;3.94;98.72;97295.19;5094443;28;20870;-67
2021/11/11 00:44:03;;;;;;;24.85;15.88;;;;;;;3.87;99.01;97286.47;5111338;28;20887;-67
2021/11/11 00:46:28;;;;;;;24.92;15.95;;;;;;;3.80;99.11;97293.31;5093190;28;20514;-68
2021/11/11 00:48:54;;;;;;;24.43;15.70;;;;;;;3.75;98.58;97299.81;5095128;28;20388;-67
2021/11/11 00:51:19;;;;;;;25.73;16.33;;;;;;;3.79;98.42;97304.69;5095109;28;20530;-67
2021/11/11 00:53:45;;;;;;;23.80;15.23;;;;;;;3.71;98.97;97301.16;5112617;28;20404;-67
2021/11/11 00:56:11;;;;;;;25.67;16.07;;;;;;;3.56;98.67;97302.03;5106896;28;20442;-66
2021/11/11 00:58:37;;;;;;;23.20;15.88;;;;;;;3.58;99.57;97292.31;5102806;28;20539;-67
2021/11/11 01:01:02;;;;;;;24.83;17.00;;;;;;;3.60;99.64;97295.53;5094717;28;20954;-67
2021/11/11 01:03:39;;;;;;;26.20;16.27;;;;;;;3.54;99.74;97297.03;5112847;28;20388;-67
2021/11/11 01:06:07;;;;;;;22.33;16.20;;;;;;;3.57;99.85;97304.44;5106672;28;20418;-67
2021/11/11 01:08:33;;;;;;;25.17;17.63;;;;;;;3.49;100.00;97308.88;5094214;28;20415;-67
2021/11/11 01:11:00;;;;;;;30.23;19.65;;;;;;;3.76;100.00;97303.22;5099725;28;20386;-67
2021/11/11 01:13:25;;;;;;;27.23;17.35;;;;;;;3.40;100.00;97299.53;5092301;28;20405;-67
2021/11/11 01:15:51;;;;;;;24.63;16.73;;;;;;;3.35;100.00;97303.41;5090525;28;20401;-67
2021/11/11 01:18:16;;;;;;;22.73;16.63;;;;;;;3.37;100.00;97298.06;5099178;28;20389;-67
2021/11/11 01:20:42;;;;;;;27.80;17.55;;;;;;;3.41;100.00;97294.16;5112089;28;20404;-67
2021/11/11 01:23:08;;;;;;;21.20;16.10;;;;;;;3.43;100.00;97284.44;5091113;28;20409;-67
2021/11/11 01:25:37;;;;;;;23.60;16.20;;;;;;;3.49;99.74;97293.31;5093345;28;20477;-67
2021/11/11 01:28:03;;;;;;;22.58;15.35;;;;;;;3.37;99.58;97287.72;5097268;28;20749;-67
2021/11/11 01:30:29;;;;;;;22.10;16.15;;;;;;;3.42;98.83;97287.19;5094033;28;20737;-67
2021/11/11 01:32:55;;;;;;;24.50;16.00;;;;;;;3.34;98.85;97270.72;5111659;28;20426;-67
2021/11/11 01:35:20;;;;;;;26.63;16.63;;;;;;;3.38;99.07;97280.75;5112053;28;20853;-67
2021/11/11 01:37:46;;;;;;;23.05;16.80;;;;;;;3.36;99.73;97280.91;5093835;28;20394;-67
2021/11/11 01:40:15;;;;;;;27.50;16.47;;;;;;;3.29;100.00;97275.59;5091987;28;20390;-66
2021/11/11 01:42:56;;;;;;;25.33;17.38;;;;;;;3.60;99.66;97278.22;5092787;28;20751;-67
2021/11/11 01:45:42;;;;;;;27.00;17.33;;;;;;;3.61;100.00;97286.78;5093191;28;20485;-67
2021/11/11 01:48:11;;;;;;;25.50;17.52;;;;;;;3.67;99.18;97288.72;5102776;28;20383;-66
2021/11/11 01:50:39;;;;;;;25.80;16.65;;;;;;;3.69;98.98;97295.31;5111184;28;20381;-67
2021/11/11 01:53:09;;;;;;;25.13;16.08;;;;;;;3.50;100.00;97298.34;5106184;28;20797;-68
2021/11/11 01:55:35;;;;;;;27.65;16.27;;;;;;;3.49;100.00;97299.31;5109815;28;20404;-66
2021/11/11 01:58:00;;;;;;;22.77;16.20;;;;;;;3.60;100.00;97298.13;5098834;28;20383;-66
2021/11/11 02:00:33;;;;;;;21.80;15.60;;;;;;;3.64;100.00;97287.25;5090389;28;20501;-67
2021/11/11 02:03:04;;;;;;;22.80;15.80;;;;;;;3.58;100.00;97285.34;5109336;28;20407;-67
2021/11/11 02:05:31;;;;;;;23.75;16.15;;;;;;;3.59;99.43;97279.19;5090137;28;20509;-69
2021/11/11 02:07:56;;;;;;;22.05;15.43;;;;;;;3.54;98.71;97280.66;5104586;28;20414;-67
2021/11/11 02:10:23;;;;;;;25.10;15.43;;;;;;;3.44;98.93;97272.31;5109945;28;20397;-67
2021/11/11 02:12:49;;;;;;;22.50;14.90;;;;;;;3.35;99.97;97266.34;5111769;28;20859;-71
2021/11/11 02:15:17;;;;;;;20.67;15.18;;;;;;;3.43;99.81;97261.13;5078734;28;20386;-67
2021/11/11 02:17:43;;;;;;;23.70;15.85;;;;;;;3.34;100.00;97262.16;5099590;28;20475;-67
2021/11/11 02:20:13;;;;;;;22.98;15.13;;;;;;;3.46;98.54;97260.78;5091392;28;20463;-67
2021/11/11 02:22:39;;;;;;;21.40;14.68;;;;;;;3.37;99.73;97261.81;5109332;28;20558;-67
2021/11/11 02:25:14;;;;;;;23.30;15.52;;;;;;;3.41;99.54;97265.66;5111459;28;20471;-68
2021/11/11 02:27:40;;;;;;;22.67;15.20;;;;;;;3.37;100.00;97269.56;5103249;28;20491;-67
2021/11/11 02:30:08;;;;;;;22.00;14.88;;;;;;;3.36;99.34;97262.78;5095127;28;20390;-67
2021/11/11 02:32:36;;;;;;;21.73;14.82;;;;;;;3.34;99.61;97277.69;5113320;28;20465;-67
2021/11/11 02:35:07;;;;;;;21.52;15.75;;;;;;;3.32;99.77;97266.69;5114037;28;20503;-67
2021/11/11 02:37:33;;;;;;;22.90;16.02;;;;;;;3.29;100.00;97265.22;5097577;28;20390;-68
2021/11/11 02:40:03;;;;;;;22.55;14.93;;;;;;;3.25;100.00;97266.56;5099795;28;20380;-67
2021/11/11 02:42:28;;;;;;;21.77;14.75;;;;;;;3.26;100.00;97272.53;5112543;28;20426;-68
2021/11/11 02:44:59;;;;;;;23.48;15.25;;;;;;;3.20;100.00;97266.25;5115429;28;20420;-67
2021/11/11 02:47:25;;;;;;;21.10;14.85;;;;;;;3.19;100.00;97263.81;5115539;28;20797;-67
2021/11/11 02:49:50;;;;;;;23.07;14.93;;;;;;;3.28;100.00;97260.25;5115284;28;20423;-67
2021/11/11 02:52:17;;;;;;;21.65;14.70;;;;;;;3.21;100.00;97259.28;5093568;28;20425;-71
2021/11/11 02:54:42;;;;;;;21.83;15.30;;;;;;;3.34;100.00;97265.53;5096913;28;20410;-67
2021/11/11 02:57:38;;;;;;;22.97;15.10;;;;;;;3.31;100.00;97258.09;5096521;28;20736;-67
2021/11/11 03:00:26;;;;;;;24.13;15.43;;;;;;;3.30;100.00;97259.09;5093576;28;20407;-67
2021/11/11 03:02:53;;;;;;;24.38;15.38;;;;;;;3.22;100.00;97253.94;5113066;28;20392;-67
2021/11/11 03:05:27;;;;;;;21.15;14.98;;;;;;;3.31;100.00;97255.53;5107819;28;20421;-69
2021/11/11 03:07:53;;;;;;;22.33;14.63;;;;;;;3.22;100.00;97255.72;5095036;28;20390;-67
2021/11/11 03:10:21;;;;;;;20.50;14.30;;;;;;;3.22;100.00;97261.72;5095314;28;20390;-67
2021/11/11 03:12:49;;;;;;;20.63;14.95;;;;;;;3.18;100.00;97263.00;5110381;28;20390;-68
2021/11/11 03:15:15;;;;;;;23.10;15.55;;;;;;;3.29;100.00;97254.06;5101004;28;20771;-67
2021/11/11 03:17:41;;;;;;;25.02;15.18;;;;;;;3.28;99.90;97265.44;5114794;28;20882;-67
2021/11/11 03:20:07;;;;;;;24.45;14.55;;;;;;;3.35;99.51;97258.56;5101119;28;20394;-67
2021/11/11 03:22:33;;;;;;;22.03;14.93;;;;;;;3.27;99.56;97250.84;5104530;28;20414;-67
2021/11/11 03:24:59;;;;;;;23.87;14.60;;;;;;;3.27;100.00;97250.84;5094295;28;20424;-67
2021/11/11 03:27:25;;;;;;;22.67;15.07;;;;;;;3.26;99.87;97244.88;5094527;28;20859;-68
2021/11/11 03:29:50;;;;;;;24.33;14.40;;;;;;;3.38;99.18;97257.44;5095429;28;20394;-68
2021/11/11 03:32:16;;;;;;;20.70;14.30;;;;;;;3.37;98.66;97255.81;5095927;28;20404;-67
2021/11/11 03:34:42;;;;;;;20.40;14.10;;;;;;;3.22;99.33;97253.94;5104228;28;20474;-67
2021/11/11 03:37:08;;;;;;;21.65;14.48;;;;;;;3.26;99.41;97251.81;5094519;28;20442;-67
2021/11/11 03:39:34;;;;;;;21.58;14.90;;;;;;;3.32;98.00;97248.56;5095114;28;20392;-68
2021/11/11 03:42:00;;;;;;;24.83;14.80;;;;;;;3.21;98.74;97254.13;5092810;28;20743;-68
2021/11/11 03:44:26;;;;;;;22.33;14.48;;;;;;;3.22;98.41;97253.16;5102355;28;20391;-68
2021/11/11 03:46:55;;;;;;;20.17;15.10;;;;;;;3.37;97.29;97250.63;5112016;28;20396;-67
2021/11/11 03:49:20;;;;;;;20.48;14.90;;;;;;;3.22;98.11;97243.59;5101821;28;20400;-67
2021/11/11 03:51:46;;;;;;;21.17;15.00;;;;;;;3.28;98.79;97252.47;5099329;28;20382;-67
2021/11/11 03:54:13;;;;;;;26.63;15.10;;;;;;;3.08;99.17;97249.47;5094131;28;20497;-67
2021/11/11 03:56:41;;;;;;;23.27;14.95;;;;;;;3.03;99.91;97245.75;5097455;28;20384;-67
2021/11/11 03:59:08;;;;;;;23.10;15.57;;;;;;;3.15;100.00;97249.59;5113872;28;20480;-66
2021/11/11 04:01:33;;;;;;;22.98;15.60;;;;;;;3.33;99.99;97252.78;5112456;28;20392;-66
2021/11/11 04:03:59;;;;;;;22.20;15.70;;;;;;;3.19;99.42;97253.47;5095201;28;20791;-66
2021/11/11 04:06:25;;;;;;;24.07;15.53;;;;;;;3.35;98.57;97256.78;5113299;28;20400;-66
2021/11/11 04:08:50;;;;;;;21.97;15.20;;;;;;;3.38;98.63;97253.06;5113726;28;20384;-67
2021/11/11 04:11:16;;;;;;;23.23;15.52;;;;;;;3.32;97.73;97264.09;5098348;28;20407;-69
2021/11/11 04:13:42;;;;;;;23.02;15.20;;;;;;;3.13;98.72;97254.94;5093465;28;20530;-66
2021/11/11 04:16:07;;;;;;;23.23;15.02;;;;;;;2.98;100.00;97261.81;5093777;28;20398;-66
2021/11/11 04:18:33;;;;;;;22.60;14.87;;;;;;;2.92;100.00;97263.28;5111158;28;20783;-65
2021/11/11 04:21:00;;;;;;;20.87;15.33;;;;;;;2.99;99.03;97262.63;5101103;28;20389;-66
2021/11/11 04:23:25;;;;;;;23.40;15.80;;;;;;;3.03;98.87;97258.72;5092280;28;20408;-68
2021/11/11 04:28:28;;;;;;;20.05;14.75;;;;;;;2.90;98.16;97259.22;5093470;28;20382;-67
2021/11/11 04:30:58;;;;;;;23.02;14.40;;;;;;;2.75;98.81;97258.31;5105766;28;20433;-66
2021/11/11 04:33:25;;;;;;;22.85;14.60;;;;;;;2.69;99.17;97264.97;5096323;28;20824;-66
2021/11/11 04:35:55;;;;;;;24.15;15.55;;;;;;;2.71;98.90;97255.25;5093590;28;20389;-65
2021/11/11 04:41:21;;;;;;;19.75;15.15;;;;;;;2.74;98.59;97269.63;5106764;28;20505;-67
2021/11/11 04:49:24;;;;;;;20.40;14.35;;;;;;;2.62;98.31;97258.03;5112716;28;20400;-68
2021/11/11 05:02:51;;;;;;;24.10;16.00;;;;;;;2.78;98.07;97281.28;5109370;28;20875;-67
2021/11/11 05:05:16;;;;;;;23.88;16.15;;;;;;;2.50;99.40;97286.03;5112634;28;20440;-68
2021/11/11 05:07:42;;;;;;;23.40;16.38;;;;;;;2.22;100.00;97285.56;5112751;28;20484;-67
2021/11/11 05:10:07;;;;;;;22.17;15.50;;;;;;;2.31;99.73;97283.75;5098684;28;20895;-67
2021/11/11 05:12:33;;;;;;;22.92;15.30;;;;;;;2.36;99.39;97286.66;5092500;28;20394;-67
2021/11/11 05:14:58;;;;;;;22.87;15.00;;;;;;;2.45;97.99;97283.91;5090759;28;20438;-67
2021/11/11 05:17:24;;;;;;;20.20;14.48;;;;;;;2.36;98.21;97291.84;5092680;28;20423;-67
2021/11/11 05:19:51;;;;;;;21.85;14.55;;;;;;;2.24;99.65;97293.94;5104192;28;20393;-67
2021/11/11 05:22:17;;;;;;;22.50;15.00;;;;;;;2.54;97.81;97294.25;5111666;28;20392;-67
2021/11/11 05:24:42;;;;;;;20.60;15.25;;;;;;;2.44;98.08;97290.06;5111099;28;20751;-67
2021/11/11 05:27:08;;;;;;;19.20;14.73;;;;;;;2.35;98.15;97280.69;5112937;28;20373;-67
2021/11/11 05:29:33;;;;;;;19.73;14.57;;;;;;;2.26;98.28;97271.31;5090867;28;20407;-67
2021/11/11 05:31:59;;;;;;;21.70;14.93;;;;;;;2.18;100.00;97273.91;5091772;28;20843;-67
2021/11/11 05:34:24;;;;;;;25.77;15.13;;;;;;;2.25;100.00;97274.06;5105312;28;20947;-67
2021/11/11 05:36:50;;;;;;;23.67;15.75;;;;;;;2.49;100.00;97280.03;5112166;28;20396;-68
2021/11/11 05:39:15;;;;;;;22.53;15.93;;;;;;;2.53;100.00;97282.28;5110405;28;20872;-67
2021/11/11 05:41:41;;;;;;;25.30;16.00;;;;;;;2.64;100.00;97292.31;5112196;28;21003;-67
2021/11/11 05:44:07;;;;;;;20.23;15.05;;;;;;;2.60;100.00;97293.59;5090626;28;20413;-67
2021/11/11 05:46:33;;;;;;;23.47;15.27;;;;;;;2.53;100.00;97288.28;5093417;28;20873;-67
2021/11/11 05:48:59;;;;;;;22.97;14.60;;;;;;;2.56;100.00;97284.56;5099549;28;20392;-67
2021/11/11 05:51:24;;;;;;;23.30;16.07;;;;;;;2.60;100.00;97283.25;5105835;28;20418;-67
2021/11/11 05:53:50;;;;;;;19.13;14.07;;;;;;;2.44;100.00;97284.09;5091837;28;20398;-67
2021/11/11 05:56:15;;;;;;;18.50;14.02;;;;;;;2.41;99.39;97274.06;5095395;28;20735;-67
2021/11/11 05:58:41;;;;;;;18.33;13.37;;;;;;;2.42;98.77;97275.69;5105892;28;20708;-67
2021/11/11 06:01:06;;;;;;;19.57;13.90;;;;;;;2.21;98.18;97273.59;5097458;28;20425;-70
2021/11/11 06:03:32;;;;;;;18.13;13.43;;;;;;;2.13;98.97;97275.34;5091670;28;20527;-67
2021/11/11 06:05:58;;;;;;;19.00;13.50;;;;;;;2.04;98.51;97275.38;5092095;28;20455;-67
2021/11/11 06:08:24;;;;;;;20.08;14.13;;;;;;;2.12;99.09;97271.97;5091744;28;20397;-67
2021/11/11 06:10:49;;;;;;;20.23;13.50;;;;;;;2.14;98.60;97271.81;5094725;28;20396;-67
2021/11/11 06:13:14;;;;;;;19.43;14.27;;;;;;;2.15;98.75;97274.25;5096173;28;20428;-67
2021/11/11 06:15:40;;;;;;;20.63;14.38;;;;;;;2.18;99.37;97279.06;5111138;28;20410;-67
2021/11/11 06:18:06;;;;;;;23.00;14.60;;;;;;;2.31;99.02;97283.75;5112045;28;20411;-67
2021/11/11 06:20:32;;;;;;;20.45;14.70;;;;;;;2.29;99.74;97288.28;5111219;28;20463;-67
2021/11/11 06:22:59;;;;;;;23.52;15.60;;;;;;;2.51;100.00;97292.78;5091759;28;20401;-68
2021/11/11 06:25:25;;;;;;;19.33;14.98;;;;;;;2.51;100.00;97296.19;5056691;28;20386;-67
2021/11/11 06:27:50;;;;;;;22.38;15.27;;;;;;;2.58;100.00;97296.34;5097788;28;20388;-67
2021/11/11 06:30:16;;;;;;;21.20;15.40;;;;;;;2.74;99.98;97305.84;5111891;28;20918;-67
2021/11/11 06:32:42;;;;;;;23.63;15.02;;;;;;;2.77;99.84;97310.72;5111047;28;20388;-67
2021/11/11 06:35:08;;;;;;;20.57;14.83;;;;;;;2.66;100.00;97311.06;5111522;28;20869;-67
2021/11/11 06:37:34;;;;;;;21.02;14.52;;;;;;;2.61;100.00;97311.56;5103337;28;20392;-67
2021/11/11 06:40:00;;;;;;;22.60;15.07;;;;;;;2.73;99.83;97310.22;5111773;28;20438;-67
2021/11/11 06:42:25;;;;;;;22.33;15.10;;;;;;;2.80;98.04;97316.38;5098639;28;20777;-67
2021/11/11 06:44:51;;;;;;;21.98;15.10;;;;;;;2.78;98.59;97312.34;5111187;28;20388;-67
2021/11/11 06:47:16;;;;;;;22.07;14.67;;;;;;;2.64;99.00;97311.22;5103489;28;20392;-67
2021/11/11 06:49:41;;;;;;;22.17;15.13;;;;;;;2.92;96.98;97307.28;5092869;28;20425;-67
2021/11/11 06:52:07;;;;;;;20.25;14.38;;;;;;;2.89;96.38;97312.00;5111079;28;20868;-67
2021/11/11 06:54:33;;;;;;;22.23;14.07;;;;;;;2.96;95.99;97309.53;5076269;28;20405;-70
2021/11/11 06:56:59;;;;;;;19.83;13.70;;;;;;;3.03;95.65;97315.69;5109541;28;20380;-67
2021/11/11 06:59:24;;;;;;;19.75;13.40;;;;;;;3.33;95.21;97320.13;5098091;28;20394;-67
2021/11/11 07:01:50;;;;;;;21.70;13.67;;;;;;;3.25;94.37;97313.19;5093843;28;20393;-68
2021/11/11 07:04:15;;;;;;;19.10;13.10;;;;;;;3.44;94.39;97319.75;5090855;28;20402;-68
2021/11/11 07:06:40;;;;;;;22.20;14.53;;;;;;;3.62;93.01;97320.28;5097001;28;20726;-67
2021/11/11 07:09:06;;;;;;;17.87;14.10;;;;;;;3.71;91.90;97310.72;5110618;28;20451;-67
2021/11/11 07:11:32;;;;;;;18.67;13.48;;;;;;;3.74;92.53;97311.16;5110342;28;20395;-67
2021/11/11 07:13:57;;;;;;;20.83;14.13;;;;;;;3.90;91.26;97312.84;5107380;28;20410;-67
2021/11/11 07:16:23;;;;;;;20.07;13.00;;;;;;;3.92;91.41;97310.09;5103292;28;20445;-67
2021/11/11 07:18:49;;;;;;;18.27;13.37;;;;;;;3.83;91.06;97311.94;5115172;28;20976;-66
2021/11/11 07:21:14;;;;;;;18.93;12.57;;;;;;;3.89;91.23;97315.63;5093413;28;20386;-66
2021/11/11 07:23:40;;;;;;;18.77;13.00;;;;;;;3.92;89.75;97315.28;5094136;28;20875;-66
2021/11/11 07:26:05;;;;;;;16.33;12.65;;;;;;;4.09;88.31;97319.38;5094580;28;20386;-66
2021/11/11 07:28:31;;;;;;;17.80;13.57;;;;;;;4.02;88.58;97319.25;5102827;28;20737;-67
2021/11/11 07:30:57;;;;;;;18.77;13.53;;;;;;;4.07;88.03;97319.53;5104050;28;20392;-66
2021/11/11 07:33:23;;;;;;;17.45;13.55;;;;;;;4.19;87.10;97317.38;5095488;28;20764;-66
2021/11/11 07:35:48;;;;;;;17.63;12.90;;;;;;;4.23;87.16;97316.06;5114253;28;20748;-68
2021/11/11 07:38:16;;;;;;;19.33;13.10;;;;;;;4.14;88.27;97323.06;5113708;28;20388;-67
2021/11/11 07:40:42;;;;;;;19.27;13.03;;;;;;;3.22;93.22;97321.28;5113384;28;20388;-66
2021/11/11 07:43:08;;;;;;;18.48;13.00;;;;;;;4.04;91.35;97316.50;5095738;28;20388;-66
2021/11/11 07:45:33;;;;;;;20.20;12.80;;;;;;;4.41;88.98;97320.91;5105862;28;20393;-65
2021/11/11 07:48:01;;;;;;;33.97;20.02;;;;;;;4.82;86.91;97330.00;5092021;28;20892;-66
2021/11/11 07:50:34;;;;;;;30.73;17.52;;;;;;;5.08;85.65;97339.13;5094241;28;20458;-65
2021/11/11 07:53:01;;;;;;;19.25;13.63;;;;;;;5.12;85.57;97332.63;5100059;28;20407;-66
2021/11/11 07:55:28;;;;;;;19.45;13.30;;;;;;;5.02;85.95;97336.28;5095999;28;20799;-65
2021/11/11 07:57:54;;;;;;;20.33;13.40;;;;;;;5.28;85.07;97341.03;5108574;28;20397;-65
2021/11/11 08:00:19;;;;;;;18.25;13.60;;;;;;;5.04;85.63;97346.50;5092624;28;20451;-66
2021/11/11 08:02:46;;;;;;;17.85;12.85;;;;;;;5.14;85.70;97352.22;5084437;28;20472;-66
2021/11/11 08:05:15;;;;;;;18.42;13.40;;;;;;;5.34;84.94;97358.53;5109954;28;20412;-66
2021/11/11 08:07:44;;;;;;;17.80;12.38;;;;;;;4.94;83.99;97362.34;5104684;28;20422;-67
2021/11/11 08:10:10;;;;;;;16.80;12.63;;;;;;;4.77;85.13;97362.66;5104229;28;20503;-65
2021/11/11 08:12:35;;;;;;;17.60;13.67;;;;;;;4.97;84.49;97361.16;5092344;28;20769;-66
2021/11/11 08:15:01;;;;;;;19.10;12.80;;;;;;;4.92;84.42;97360.88;5093305;28;20489;-65
2021/11/11 08:17:26;;;;;;;17.67;12.77;;;;;;;4.82;85.18;97371.53;5094534;28;20473;-64
2021/11/11 08:19:56;;;;;;;18.33;12.88;;;;;;;4.46;87.16;97371.31;5093359;28;20715;-66
2021/11/11 08:22:26;;;;;;;18.03;13.07;;;;;;;4.61;86.42;97363.59;5093274;28;20386;-72
2021/11/11 08:24:52;;;;;;;18.50;13.27;;;;;;;4.67;86.55;97367.28;5087142;28;21167;-66
2021/11/11 08:27:19;;;;;;;17.17;13.20;;;;;;;4.60;86.88;97372.38;5110110;28;20483;-64
2021/11/11 08:29:45;;;;;;;17.25;12.65;;;;;;;4.71;86.37;97363.34;5093532;28;20484;-65
2021/11/11 08:32:13;;;;;;;16.38;12.52;;;;;;;4.93;86.12;97373.72;5091237;28;20494;-65
2021/11/11 08:34:40;;;;;;;17.23;12.65;;;;;;;4.95;86.30;97371.75;5096528;28;20418;-67
2021/11/11 08:37:06;;;;;;;17.13;13.07;;;;;;;4.97;85.16;97374.16;5091704;28;20405;-66
2021/11/11 08:39:32;;;;;;;17.83;12.95;;;;;;;4.97;85.45;97369.75;5091448;28;20789;-66
2021/11/11 08:41:57;;;;;;;17.35;13.52;;;;;;;4.73;86.99;97364.00;5094171;28;20402;-66
2021/11/11 08:44:23;;;;;;;17.53;12.63;;;;;;;4.86;86.94;97365.00;5107042;28;20393;-66
2021/11/11 08:46:49;;;;;;;28.87;17.43;;;;;;;5.10;86.20;97363.97;5099996;28;20392;-65
2021/11/11 08:49:17;;;;;;;18.95;13.30;;;;;;;5.17;85.35;97369.25;5113082;28;20420;-66
2021/11/11 08:51:43;;;;;;;15.80;12.60;;;;;;;5.36;85.11;97369.53;5112690;28;20388;-66
2021/11/11 08:54:10;;;;;;;21.48;14.27;;;;;;;5.06;86.58;97373.09;5096658;28;20416;-70
2021/11/11 08:56:37;;;;;;;20.45;14.07;;;;;;;5.29;86.35;97373.03;5112819;28;20389;-66
2021/11/11 08:59:03;;;;;;;19.35;13.85;;;;;;;5.16;87.07;97375.44;5108794;28;20481;-66
2021/11/11 09:01:31;;;;;;;18.77;13.98;;;;;;;5.30;86.54;97378.03;5103413;28;20744;-67
2021/11/11 09:03:56;;;;;;;19.40;13.90;;;;;;;5.36;86.31;97384.31;5092737;28;20402;-66
2021/11/11 09:06:22;;;;;;;18.60;13.67;;;;;;;5.34;86.40;97379.31;5105842;28;20410;-66
2021/11/11 09:08:51;;;;;;;18.47;13.80;;;;;;;5.16;87.42;97383.25;5092405;28;20551;-67
2021/11/11 09:11:17;;;;;;;19.33;14.07;;;;;;;5.08;88.16;97394.50;5101866;28;20382;-66
2021/11/11 09:13:44;;;;;;;20.70;14.45;;;;;;;5.08;88.02;97386.72;5096917;28;20408;-66
2021/11/11 09:16:11;;;;;;;20.23;14.52;;;;;;;5.15;88.07;97387.63;5103052;28;20397;-66
2021/11/11 09:18:37;;;;;;;20.67;14.90;;;;;;;5.30;87.00;97383.25;5092228;28;20412;-67
2021/11/11 09:21:05;;;;;;;21.83;15.27;;;;;;;5.58;85.91;97382.59;5094409;28;20772;-68
2021/11/11 09:23:31;;;;;;;19.25;14.80;;;;;;;5.52;85.71;97385.94;5095551;28;20401;-67
2021/11/11 09:25:58;;;;;;;18.23;14.53;;;;;;;5.52;85.77;97386.72;5091871;28;20805;-67
2021/11/11 09:28:24;;;;;;;19.77;14.85;;;;;;;5.50;85.92;97393.13;5092193;28;20398;-67
2021/11/11 09:30:49;;;;;;;21.33;15.63;;;;;;;5.66;84.12;97393.75;5104758;28;20377;-67
2021/11/11 09:33:15;;;;;;;20.95;15.55;;;;;;;5.58;84.46;97400.81;5111367;28;20412;-67
2021/11/11 09:35:40;;;;;;;21.05;15.25;;;;;;;5.30;86.19;97403.22;5108800;28;20401;-67
2021/11/11 09:38:06;;;;;;;23.07;15.60;;;;;;;5.29;86.36;97404.22;5111806;28;20412;-67
2021/11/11 09:40:32;;;;;;;20.42;14.98;;;;;;;5.46;85.62;97417.88;5101577;28;20447;-67
2021/11/11 09:42:57;;;;;;;23.33;16.08;;;;;;;5.60;84.58;97414.44;5103425;28;20433;-67
2021/11/11 09:45:27;;;;;;;22.23;16.08;;;;;;;5.75;83.45;97410.03;5090445;28;20398;-67
2021/11/11 09:47:53;;;;;;;23.75;15.98;;;;;;;5.14;86.41;97406.78;5090534;28;20775;-67
2021/11/11 09:50:21;;;;;;;22.52;16.00;;;;;;;5.37;86.78;97406.72;5097991;28;20385;-68
2021/11/11 09:52:50;;;;;;;22.88;16.15;;;;;;;5.61;85.30;97411.69;5111877;28;20388;-67
2021/11/11 10:00:47;;;;;;;23.90;16.07;;;;;;;5.93;83.95;97399.28;5097860;28;20968;-67
2021/11/11 10:03:13;;;;;;;25.47;18.40;;;;;;;6.41;81.99;97403.06;5107755;28;20395;-67
2021/11/11 10:05:38;;;;;;;27.60;18.10;;;;;;;5.98;82.98;97409.97;5111447;28;20416;-67
2021/11/11 10:08:05;;;;;;;27.10;17.27;;;;;;;5.97;83.68;97408.34;5111767;28;20388;-68
2021/11/11 10:10:37;;;;;;;26.03;19.40;;;;;;;6.30;82.67;97413.94;5093282;28;20389;-67
2021/11/11 10:13:10;;;;;;;26.70;17.95;;;;;;;5.98;83.80;97410.75;5111701;28;20427;-67
2021/11/11 10:15:55;;;;;;;21.88;16.70;;;;;;;6.28;82.83;97413.31;5111072;28;20754;-67
2021/11/11 10:18:42;;;;;;;24.98;16.55;;;;;;;6.10;83.97;97411.09;5095048;28;20397;-67
2021/11/11 10:21:32;;;;;;;25.23;17.58;;;;;;;6.00;84.05;97413.19;5089974;28;20393;-66
2021/11/11 10:24:13;;;;;;;24.48;17.35;;;;;;;6.23;83.09;97412.06;5090931;28;20881;-68
2021/11/11 10:26:41;;;;;;;26.20;17.02;;;;;;;5.80;85.61;97405.09;5096475;28;20411;-66
2021/11/11 10:29:19;;;;;;;25.05;16.27;;;;;;;5.84;85.59;97404.56;5111229;28;20392;-66
2021/11/11 10:32:07;;;;;;;25.83;16.30;;;;;;;6.07;84.58;97406.28;5085103;28;20390;-67
2021/11/11 10:34:33;;;;;;;22.48;15.98;;;;;;;6.33;84.08;97413.56;5091310;28;20909;-66
2021/11/11 10:36:59;;;;;;;23.60;16.40;;;;;;;6.03;85.79;97411.03;5098928;28;20389;-67
2021/11/11 10:39:28;;;;;;;25.27;16.38;;;;;;;6.30;85.18;97406.13;5095596;28;20421;-67
2021/11/11 10:41:56;;;;;;;22.85;16.55;;;;;;;6.09;84.23;97402.50;5103336;28;20716;-67
2021/11/11 10:44:28;;;;;;;21.45;15.60;;;;;;;6.14;85.49;97399.34;5101319;28;20396;-67
2021/11/11 10:47:07;;;;;;;21.90;15.52;;;;;;;6.40;84.96;97396.22;5111733;28;20479;-68
2021/11/11 10:49:40;;;;;;;19.92;15.02;;;;;;;6.53;83.48;97399.75;5114440;28;20504;-65
2021/11/11 10:52:27;;;;;;;23.65;16.17;;;;;;;6.99;82.14;97399.34;5106606;28;20401;-66
2021/11/11 10:55:13;;;;;;;20.42;15.23;;;;;;;7.25;81.45;97399.53;5095046;28;20406;-66
2021/11/11 10:57:53;;;;;;;21.45;15.07;;;;;;;7.36;80.44;97388.59;5084269;28;20422;-66
2021/11/11 11:00:31;;;;;;;20.70;13.17;;;;;;;7.28;80.67;97385.34;5102260;28;20198;-66
2021/11/11 11:03:02;;;;;;;27.38;17.17;;;;;;;7.35;80.71;97384.38;5106603;28;20426;-66
2021/11/11 11:05:38;;;;;;;22.80;16.27;;;;;;;7.66;79.86;97386.56;5094517;28;20909;-67
2021/11/11 11:08:08;;;;;;;22.80;16.85;;;;;;;7.94;78.77;97384.69;5093510;28;20413;-66
2021/11/11 11:10:36;;;;;;;22.85;16.77;;;;;;;7.98;77.93;97386.88;5110277;28;20388;-66
2021/11/11 11:13:08;;;;;;;22.17;16.10;;;;;;;7.71;78.65;97381.56;5095447;28;20534;-66
2021/11/11 11:15:35;;;;;;;27.38;16.92;;;;;;;7.25;79.94;97388.31;5094958;28;20398;-66
2021/11/11 11:18:01;;;;;;;21.35;16.35;;;;;;;7.57;79.97;97379.09;5105125;28;20407;-66
2021/11/11 11:20:28;;;;;;;24.42;16.00;;;;;;;7.87;79.39;97389.06;5100396;28;20766;-66
2021/11/11 11:23:21;;;;;;;21.48;16.40;;;;;;;8.18;77.40;97385.97;5106623;28;20472;-66
2021/11/11 11:25:54;;;;;;;21.58;15.57;;;;;;;8.09;76.81;97381.91;5114456;28;20514;-68
2021/11/11 11:29:09;;;;;;;19.95;15.45;;;;;;;7.71;78.90;97383.38;5107750;28;20401;-68
2021/11/11 11:31:47;;;;;;;21.75;16.30;;;;;;;7.72;78.96;97382.38;5109585;28;20396;-68
2021/11/11 11:34:25;;;;;;;22.80;16.60;;;;;;;7.82;78.41;97388.03;5106356;28;20453;-69
2021/11/11 11:36:55;;;;;;;28.05;16.63;;;;;;;7.61;79.08;97377.69;5094359;28;20451;-68
2021/11/11 11:39:31;;;;;;;24.15;16.58;;;;;;;7.24;81.05;97378.91;5092332;28;21981;-68
2021/11/11 11:42:04;;;;;;;19.23;15.40;;;;;;;7.34;80.32;97385.38;5095043;28;20398;-68
2021/11/11 11:44:35;;;;;;;21.97;16.20;;;;;;;7.39;80.24;97375.19;5093234;28;20381;-69
2021/11/11 11:47:07;;;;;;;25.75;17.98;;;;;;;7.42;80.29;97377.38;5099233;28;20395;-68
2021/11/11 11:49:34;;;;;;;23.25;16.85;;;;;;;7.66;79.37;97375.31;5110354;28;20488;-67
2021/11/11 11:52:00;;;;;;;26.70;16.88;;;;;;;7.62;79.41;97366.28;5104392;28;20917;-68
2021/11/11 11:54:37;;;;;;;22.83;17.60;;;;;;;7.50;79.71;97360.78;5087916;28;20548;-69